Time;durP1;ratioP1;P1;durP2;ratioP2;P2;SDS_P1;SDS_P2;PMS_P1;PMS_P2;Temp;Humidity;BMP_temperature;BMP_pressure;BME280_temperature;BME280_humidity;BME280_pressure;Samples;Min_cycle;Max_cycle;Signal;HPM_P1;HPM_P2
2022/04/01 00:02:19;;;;;;;31.03;17.47;;;6.90;99.90;;;;;;5048971;28;20247;-67
2022/04/01 00:04:47;;;;;;;38.47;19.53;;;7.00;99.90;;;;;;5049459;28;20244;-69
2022/04/01 00:07:15;;;;;;;34.37;18.50;;;6.90;99.90;;;;;;5049170;28;20263;-67
2022/04/01 00:09:42;;;;;;;34.67;17.63;;;6.90;99.90;;;;;;5049038;28;20213;-67
2022/04/01 00:12:10;;;;;;;34.53;17.80;;;6.90;99.90;;;;;;5049266;28;20638;-67
2022/04/01 00:14:37;;;;;;;29.40;17.03;;;6.90;99.90;;;;;;5048955;28;20256;-66
2022/04/01 00:17:05;;;;;;;28.77;17.40;;;6.90;99.90;;;;;;5049274;28;20254;-68
2022/04/01 00:19:32;;;;;;;30.33;16.90;;;6.90;99.90;;;;;;5048772;28;20202;-68
2022/04/01 00:21:59;;;;;;;34.10;17.33;;;6.90;99.90;;;;;;5048947;28;20201;-67
2022/04/01 00:24:28;;;;;;;33.47;17.33;;;6.90;99.90;;;;;;5048767;28;20205;-68
2022/04/01 00:26:55;;;;;;;29.70;16.80;;;6.90;99.90;;;;;;5049021;28;20265;-67
2022/04/01 00:29:21;;;;;;;35.10;16.90;;;6.80;99.90;;;;;;5049004;28;20717;-67
2022/04/01 00:31:58;;;;;;;33.23;17.80;;;6.80;99.90;;;;;;5048872;28;20662;-67
2022/04/01 00:34:26;;;;;;;28.93;15.97;;;6.80;99.90;;;;;;5048989;28;20282;-68
2022/04/01 00:36:53;;;;;;;31.53;16.97;;;6.80;99.90;;;;;;5049193;28;20216;-67
2022/04/01 00:39:21;;;;;;;31.97;16.90;;;6.80;99.90;;;;;;5048424;28;20271;-67
2022/04/01 00:41:50;;;;;;;31.53;17.13;;;6.80;99.90;;;;;;5048897;28;20658;-67
2022/04/01 00:44:19;;;;;;;33.80;16.90;;;6.90;99.90;;;;;;5048435;28;20197;-68
2022/04/01 00:46:47;;;;;;;32.03;17.10;;;6.80;99.90;;;;;;5048843;28;20739;-67
2022/04/01 00:49:14;;;;;;;27.90;15.73;;;6.80;99.90;;;;;;5048391;28;20245;-67
2022/04/01 00:51:44;;;;;;;30.23;17.30;;;6.80;99.90;;;;;;5048445;28;20324;-67
2022/04/01 00:54:12;;;;;;;32.50;16.43;;;6.80;99.90;;;;;;5048465;28;20237;-67
2022/04/01 00:56:39;;;;;;;34.00;17.03;;;6.80;99.90;;;;;;5048647;28;20240;-66
2022/04/01 00:59:08;;;;;;;34.37;17.50;;;6.90;99.90;;;;;;5048599;28;20213;-67
2022/04/01 01:01:37;;;;;;;28.57;16.17;;;6.90;99.90;;;;;;5048786;28;20202;-68
2022/04/01 01:04:07;;;;;;;33.87;17.27;;;6.80;99.90;;;;;;5048512;28;20206;-67
2022/04/01 01:06:37;;;;;;;31.13;17.30;;;6.80;99.90;;;;;;5048734;28;20205;-68
2022/04/01 01:09:04;;;;;;;32.10;17.37;;;6.80;99.90;;;;;;5048498;28;20276;-67
2022/04/01 01:11:32;;;;;;;32.47;18.27;;;6.80;99.90;;;;;;5048692;28;20280;-67
2022/04/01 01:13:59;;;;;;;32.07;17.33;;;6.90;99.90;;;;;;5048450;28;20288;-67
2022/04/01 01:16:28;;;;;;;38.00;17.67;;;6.80;99.90;;;;;;5048717;28;20562;-67
2022/04/01 01:19:00;;;;;;;31.83;17.97;;;6.90;99.90;;;;;;5048723;28;20304;-68
2022/04/01 01:21:28;;;;;;;30.30;17.80;;;6.90;99.90;;;;;;5048544;28;20204;-67
2022/04/01 01:24:00;;;;;;;34.00;18.70;;;6.90;99.90;;;;;;5048523;28;20240;-67
2022/04/01 01:26:28;;;;;;;33.17;18.83;;;7.00;99.90;;;;;;5048607;28;20289;-69
2022/04/01 01:28:57;;;;;;;39.23;19.80;;;7.00;99.90;;;;;;5048233;28;20213;-66
2022/04/01 01:31:24;;;;;;;35.30;19.53;;;7.00;99.90;;;;;;5047717;28;20312;-68
2022/04/01 01:33:52;;;;;;;35.00;19.37;;;7.10;99.90;;;;;;5048199;28;20564;-67
2022/04/01 01:36:19;;;;;;;33.07;17.87;;;7.00;99.90;;;;;;5050832;28;20610;-67
2022/04/01 01:38:46;;;;;;;31.63;18.90;;;7.10;99.90;;;;;;5051225;28;20324;-67
2022/04/01 01:41:14;;;;;;;34.77;19.40;;;7.10;99.90;;;;;;5051233;28;20293;-67
2022/04/01 01:43:43;;;;;;;35.37;19.53;;;7.20;99.90;;;;;;5051602;28;20286;-68
2022/04/01 01:46:10;;;;;;;35.10;20.37;;;7.20;99.90;;;;;;5051334;28;20301;-67
2022/04/01 01:48:37;;;;;;;33.70;19.53;;;7.20;99.90;;;;;;5051184;28;20482;-68
2022/04/01 01:56:33;;;;;;;35.17;20.33;;;7.30;99.90;;;;;;5051161;28;20188;-68
2022/04/01 01:59:03;;;;;;;35.07;20.80;;;7.30;99.90;;;;;;5050919;28;20215;-68
2022/04/01 02:01:30;;;;;;;36.70;20.70;;;7.30;99.90;;;;;;5050961;28;20305;-68
2022/04/01 02:03:57;;;;;;;30.77;19.67;;;7.30;99.90;;;;;;5051121;28;20625;-68
2022/04/01 02:06:23;;;;;;;34.03;19.50;;;7.40;99.90;;;;;;5050950;28;20210;-68
2022/04/01 02:08:53;;;;;;;32.03;19.80;;;7.40;99.90;;;;;;5051253;28;20634;-68
2022/04/01 02:11:21;;;;;;;35.47;19.97;;;7.40;99.90;;;;;;5050787;28;20226;-67
2022/04/01 02:13:48;;;;;;;31.77;19.47;;;7.40;99.90;;;;;;5051083;28;20229;-67
2022/04/01 02:16:17;;;;;;;33.63;19.13;;;7.40;99.90;;;;;;5050969;28;20309;-68
2022/04/01 02:18:44;;;;;;;30.47;19.43;;;7.40;99.90;;;;;;5051172;28;20233;-67
2022/04/01 02:21:12;;;;;;;28.63;17.63;;;7.30;99.90;;;;;;5051036;28;20664;-67
2022/04/01 02:23:39;;;;;;;31.70;19.10;;;7.40;99.90;;;;;;5051042;28;20615;-67
2022/04/01 02:26:07;;;;;;;34.83;18.90;;;7.40;99.90;;;;;;5050781;28;20589;-68
2022/04/01 02:28:34;;;;;;;32.23;17.63;;;7.40;99.90;;;;;;5051106;28;20587;-67
2022/04/01 02:31:01;;;;;;;30.87;18.17;;;7.40;99.90;;;;;;5050615;28;20270;-68
2022/04/01 02:33:29;;;;;;;32.37;18.33;;;7.30;99.90;;;;;;5050889;28;20674;-67
2022/04/01 02:35:57;;;;;;;27.33;17.77;;;7.30;99.90;;;;;;5050315;28;20241;-68
2022/04/01 02:38:25;;;;;;;29.83;18.20;;;7.30;99.90;;;;;;5050402;28;20233;-69
2022/04/01 02:40:53;;;;;;;26.83;16.77;;;7.30;99.90;;;;;;5050472;27;20205;-68
2022/04/01 02:43:20;;;;;;;27.63;17.40;;;7.30;99.90;;;;;;5050693;28;20213;-68
2022/04/01 02:45:48;;;;;;;29.23;17.07;;;7.30;99.90;;;;;;5050537;28;20289;-68
2022/04/01 02:48:16;;;;;;;25.87;16.57;;;7.30;99.90;;;;;;5050680;28;20687;-68
2022/04/01 02:50:45;;;;;;;25.27;16.57;;;7.30;99.90;;;;;;5050225;28;20296;-68
2022/04/01 02:53:12;;;;;;;24.67;15.70;;;7.30;99.90;;;;;;5050305;28;20312;-69
2022/04/01 02:55:39;;;;;;;23.87;15.77;;;7.30;99.90;;;;;;5050133;28;20248;-68
2022/04/01 02:58:07;;;;;;;25.50;15.43;;;7.30;99.90;;;;;;5050278;28;20244;-67
2022/04/01 03:00:34;;;;;;;25.80;15.63;;;7.30;99.90;;;;;;5050088;28;20248;-68
2022/04/01 03:03:06;;;;;;;25.97;15.53;;;7.30;99.90;;;;;;5050226;28;20722;-68
2022/04/01 03:05:33;;;;;;;23.07;14.93;;;7.20;99.90;;;;;;5050218;28;20197;-68
2022/04/01 03:08:04;;;;;;;24.57;14.70;;;7.20;99.90;;;;;;5049983;28;20210;-69
2022/04/01 03:10:32;;;;;;;21.10;13.73;;;7.20;99.90;;;;;;5050163;28;20237;-69
2022/04/01 03:12:59;;;;;;;20.53;13.77;;;7.20;99.90;;;;;;5050033;28;20265;-68
2022/04/01 03:15:28;;;;;;;19.47;13.30;;;7.20;99.90;;;;;;5050330;28;20292;-69
2022/04/01 03:17:55;;;;;;;19.03;12.90;;;7.20;99.90;;;;;;5049603;28;20208;-69
2022/04/01 03:20:23;;;;;;;18.83;12.27;;;7.20;99.90;;;;;;5049912;28;20205;-68
2022/04/01 03:22:50;;;;;;;19.13;12.00;;;7.20;99.90;;;;;;5049947;28;20681;-68
2022/04/01 03:25:20;;;;;;;17.07;11.03;;;7.20;99.90;;;;;;5049846;28;20202;-69
2022/04/01 03:27:48;;;;;;;16.67;11.43;;;7.20;99.90;;;;;;5049851;28;20339;-68
2022/04/01 03:30:16;;;;;;;14.50;10.53;;;7.20;99.90;;;;;;5050077;28;20562;-69
2022/04/01 03:32:45;;;;;;;18.70;11.60;;;7.20;99.90;;;;;;5050042;28;20321;-68
2022/04/01 03:35:15;;;;;;;15.13;11.37;;;7.20;99.90;;;;;;5049832;28;20269;-69
2022/04/01 03:37:42;;;;;;;14.63;10.43;;;7.20;99.90;;;;;;5049872;28;20310;-69
2022/04/01 03:40:14;;;;;;;17.00;11.17;;;7.20;99.90;;;;;;5049540;28;20221;-67
2022/04/01 03:42:44;;;;;;;16.27;11.00;;;7.30;99.90;;;;;;5049868;28;20196;-68
2022/04/01 03:45:13;;;;;;;14.97;10.93;;;7.30;99.90;;;;;;5050054;28;20248;-68
2022/04/01 03:47:50;;;;;;;17.30;10.97;;;7.30;99.90;;;;;;5049439;28;20297;-68
2022/04/01 03:50:22;;;;;;;17.07;11.57;;;7.30;99.90;;;;;;5049725;28;20225;-68
2022/04/01 03:52:50;;;;;;;16.00;11.33;;;7.40;99.90;;;;;;5049074;28;20301;-67
2022/04/01 03:55:18;;;;;;;17.40;12.10;;;7.30;99.90;;;;;;5049577;28;20227;-67
2022/04/01 03:57:46;;;;;;;20.03;13.27;;;7.30;99.90;;;;;;5048836;28;20607;-68
2022/04/01 04:00:14;;;;;;;19.27;12.70;;;7.40;99.90;;;;;;5049205;28;20245;-69
2022/04/01 04:02:42;;;;;;;18.67;12.73;;;7.40;99.90;;;;;;5049422;28;20632;-68
2022/04/01 04:05:10;;;;;;;19.13;13.10;;;7.40;99.90;;;;;;5049498;28;20642;-68
2022/04/01 04:07:40;;;;;;;19.87;12.67;;;7.40;99.90;;;;;;5049133;28;20298;-68
2022/04/01 04:10:08;;;;;;;21.77;13.97;;;7.40;99.90;;;;;;5049158;28;20653;-68
2022/04/01 04:12:36;;;;;;;21.03;13.60;;;7.30;99.90;;;;;;5048947;28;20260;-67
2022/04/01 04:15:05;;;;;;;25.27;15.90;;;7.40;99.90;;;;;;5048995;28;20272;-67
2022/04/01 04:17:44;;;;;;;27.03;16.93;;;7.30;99.90;;;;;;5049416;28;20284;-69
2022/04/01 04:20:14;;;;;;;25.63;16.40;;;7.40;99.90;;;;;;5049513;28;20200;-67
2022/04/01 04:22:51;;;;;;;25.93;16.67;;;7.40;99.90;;;;;;5049086;28;20189;-68
2022/04/01 04:25:22;;;;;;;32.53;18.90;;;7.40;99.90;;;;;;5049206;28;20215;-69
2022/04/01 04:27:56;;;;;;;33.03;19.20;;;7.40;99.90;;;;;;5049302;28;20669;-68
2022/04/01 04:30:33;;;;;;;34.80;19.03;;;7.40;99.90;;;;;;5048900;28;20677;-69
2022/04/01 04:33:04;;;;;;;37.93;20.70;;;7.40;99.90;;;;;;5049206;28;20209;-67
2022/04/01 04:35:31;;;;;;;36.67;21.27;;;7.50;99.90;;;;;;5049071;28;20556;-69
2022/04/01 04:37:59;;;;;;;32.93;20.50;;;7.50;99.90;;;;;;5048630;28;21020;-68
2022/04/01 04:40:29;;;;;;;43.07;22.97;;;7.50;99.90;;;;;;5048841;28;20296;-67
2022/04/01 04:42:56;;;;;;;37.90;22.17;;;7.60;99.90;;;;;;5048751;28;20189;-68
2022/04/01 04:45:27;;;;;;;44.60;24.50;;;7.60;99.90;;;;;;5048461;28;20209;-67
2022/04/01 04:47:54;;;;;;;48.00;24.73;;;7.60;99.90;;;;;;5048398;28;20277;-68
2022/04/01 04:50:22;;;;;;;49.40;26.73;;;7.60;99.90;;;;;;5048614;28;20229;-67
2022/04/01 04:52:51;;;;;;;46.30;25.43;;;7.60;99.90;;;;;;5048491;28;20305;-68
2022/04/01 04:55:19;;;;;;;50.30;27.13;;;7.70;99.90;;;;;;5048624;28;20206;-68
2022/04/01 04:57:48;;;;;;;56.20;29.87;;;7.70;99.90;;;;;;5048388;28;20213;-68
2022/04/01 05:00:19;;;;;;;58.03;29.27;;;7.70;99.90;;;;;;5048361;28;20245;-67
2022/04/01 05:03:07;;;;;;;57.87;31.27;;;7.80;99.90;;;;;;5048341;28;20193;-67
2022/04/01 05:05:41;;;;;;;59.03;31.77;;;7.80;99.90;;;;;;5048754;28;20190;-68
2022/04/01 05:08:17;;;;;;;74.40;33.27;;;7.80;99.90;;;;;;5048563;28;20194;-68
2022/04/01 05:10:52;;;;;;;60.27;31.30;;;7.90;99.90;;;;;;5050465;28;20617;-67
2022/04/01 05:13:28;;;;;;;69.17;31.30;;;7.90;99.90;;;;;;5052144;28;20590;-68
2022/04/01 05:16:05;;;;;;;69.00;33.90;;;7.90;99.90;;;;;;5052202;28;20196;-69
2022/04/01 05:18:40;;;;;;;61.13;32.57;;;7.90;99.90;;;;;;5051598;28;20289;-67
2022/04/01 05:21:14;;;;;;;68.53;32.67;;;8.00;99.90;;;;;;5051601;28;20186;-68
2022/04/01 05:23:54;;;;;;;57.23;30.17;;;8.00;99.90;;;;;;5051856;28;20209;-68
2022/04/01 05:26:38;;;;;;;55.90;28.77;;;8.00;99.90;;;;;;5051898;28;20755;-69
2022/04/01 05:29:10;;;;;;;54.60;29.20;;;8.10;99.90;;;;;;5051865;28;20190;-68
2022/04/01 05:31:40;;;;;;;56.83;28.80;;;8.10;99.90;;;;;;5051523;28;20626;-68
2022/04/01 05:34:12;;;;;;;53.20;28.03;;;8.10;99.90;;;;;;5051528;28;20249;-68
2022/04/01 05:36:40;;;;;;;55.90;29.60;;;8.10;99.90;;;;;;5051621;28;20651;-68
2022/04/01 05:39:08;;;;;;;55.40;28.57;;;8.10;99.90;;;;;;5051282;28;20320;-68
2022/04/01 05:41:35;;;;;;;52.67;27.83;;;8.10;99.90;;;;;;5051535;28;20252;-68
2022/04/01 05:44:05;;;;;;;57.47;29.67;;;8.20;99.90;;;;;;5051473;28;20213;-68
2022/04/01 05:46:35;;;;;;;59.20;30.33;;;8.20;99.90;;;;;;5051179;28;20213;-68
2022/04/01 05:49:02;;;;;;;56.60;30.03;;;8.20;99.90;;;;;;5051359;28;20244;-67
2022/04/01 05:51:33;;;;;;;56.10;29.37;;;8.20;99.90;;;;;;5051396;28;20292;-67
2022/04/01 05:54:02;;;;;;;58.70;29.73;;;8.30;99.90;;;;;;5051149;28;20300;-67
2022/04/01 05:56:32;;;;;;;58.03;29.33;;;8.20;99.90;;;;;;5051355;28;20655;-67
2022/04/01 05:58:59;;;;;;;60.17;29.60;;;8.20;99.90;;;;;;5051376;28;20241;-68
2022/04/01 06:01:33;;;;;;;57.47;30.87;;;8.20;99.90;;;;;;5051244;28;20701;-67
2022/04/01 06:04:39;;;;;;;60.47;31.70;;;8.30;99.90;;;;;;5051151;28;20186;-68
2022/04/01 06:07:12;;;;;;;58.07;31.13;;;8.30;99.90;;;;;;5063201;28;20210;-67
2022/04/01 06:09:53;;;;;;;60.80;30.40;;;8.30;99.90;;;;;;5051013;28;20723;-68
2022/04/01 06:12:28;;;;;;;55.40;29.03;;;8.30;99.90;;;;;;5051181;28;20232;-67
2022/04/01 06:15:02;;;;;;;63.53;30.70;;;8.40;99.90;;;;;;5051464;28;20200;-67
2022/04/01 06:17:37;;;;;;;61.33;29.97;;;8.40;99.90;;;;;;5050705;28;20197;-68
2022/04/01 06:20:07;;;;;;;60.73;30.37;;;8.40;99.90;;;;;;5051181;28;20635;-67
2022/04/01 06:22:49;;;;;;;60.00;31.10;;;8.40;99.90;;;;;;5050358;28;20270;-67
2022/04/01 06:25:20;;;;;;;55.07;30.47;;;8.40;99.90;;;;;;5051250;28;20696;-69
2022/04/01 06:27:49;;;;;;;61.53;31.57;;;8.40;99.90;;;;;;5050786;28;20236;-68
2022/04/01 06:30:18;;;;;;;59.93;30.73;;;8.40;99.90;;;;;;5050913;28;20639;-68
2022/04/01 06:32:59;;;;;;;55.03;30.03;;;8.40;99.90;;;;;;5050645;28;20225;-69
2022/04/01 06:35:29;;;;;;;49.87;29.27;;;8.40;99.90;;;;;;5050453;28;20198;-68
2022/04/01 06:38:00;;;;;;;59.47;29.93;;;8.50;99.90;;;;;;5049329;28;20430;-68
2022/04/01 06:40:32;;;;;;;57.70;29.77;;;8.50;99.90;;;;;;5050279;28;20201;-70
2022/04/01 06:43:00;;;;;;;58.40;30.73;;;8.60;99.90;;;;;;5050738;28;20654;-67
2022/04/01 06:45:28;;;;;;;54.93;28.90;;;8.60;99.90;;;;;;5050134;28;20221;-67
2022/04/01 06:47:55;;;;;;;52.53;29.30;;;8.60;99.90;;;;;;5050581;28;20550;-68
2022/04/01 06:50:23;;;;;;;60.93;28.83;;;8.70;99.90;;;;;;5049917;28;20216;-67
2022/04/01 06:52:51;;;;;;;53.90;29.23;;;8.60;99.90;;;;;;5050240;28;20233;-67
2022/04/01 06:55:20;;;;;;;53.63;28.50;;;8.70;99.90;;;;;;5050098;28;20304;-67
2022/04/01 06:57:47;;;;;;;58.60;29.43;;;8.70;99.90;;;;;;5050483;28;20216;-69
2022/04/01 07:00:16;;;;;;;57.80;28.60;;;8.70;99.90;;;;;;5050418;28;20221;-67
2022/04/01 07:02:43;;;;;;;56.60;28.53;;;8.70;99.90;;;;;;5050155;28;20241;-68
2022/04/01 07:05:12;;;;;;;52.30;28.40;;;8.70;99.90;;;;;;5049930;28;20221;-67
2022/04/01 07:07:41;;;;;;;52.47;28.43;;;8.70;99.90;;;;;;5055701;27;20213;-68
2022/04/01 07:10:11;;;;;;;54.13;28.23;;;8.70;99.90;;;;;;5049878;28;20225;-68
2022/04/01 07:12:40;;;;;;;53.17;28.60;;;8.70;99.90;;;;;;5049925;28;20221;-69
2022/04/01 07:15:10;;;;;;;55.97;28.43;;;8.80;99.90;;;;;;5050357;28;20221;-67
2022/04/01 07:17:37;;;;;;;56.87;30.27;;;8.80;99.90;;;;;;5049882;28;20250;-68
2022/04/01 07:20:05;;;;;;;60.70;30.67;;;8.80;99.90;;;;;;5049972;28;20201;-68
2022/04/01 07:22:35;;;;;;;58.87;28.77;;;8.80;99.90;;;;;;5049857;28;20227;-68
2022/04/01 07:25:02;;;;;;;60.97;30.77;;;8.80;99.90;;;;;;5049948;28;20683;-68
2022/04/01 07:27:30;;;;;;;56.43;28.63;;;8.90;99.90;;;;;;5049605;28;20210;-67
2022/04/01 07:29:59;;;;;;;60.87;29.97;;;8.90;99.90;;;;;;5049718;28;20432;-68
2022/04/01 07:32:32;;;;;;;53.87;28.13;;;9.00;99.90;;;;;;5048625;28;20655;-67
2022/04/01 07:35:00;;;;;;;50.10;27.17;;;9.00;99.90;;;;;;5049881;28;20630;-68
2022/04/01 07:37:29;;;;;;;60.63;29.80;;;9.10;99.90;;;;;;5049633;28;20237;-68
2022/04/01 07:39:58;;;;;;;56.67;29.57;;;9.10;99.90;;;;;;5049535;28;20200;-68
2022/04/01 07:42:26;;;;;;;54.33;28.53;;;9.10;99.90;;;;;;5049261;28;20254;-68
2022/04/01 07:44:54;;;;;;;57.17;28.33;;;9.20;99.90;;;;;;5049405;28;20216;-68
2022/04/01 07:47:23;;;;;;;54.77;28.37;;;9.20;99.90;;;;;;5049233;28;20209;-67
2022/04/01 07:49:51;;;;;;;58.70;28.53;;;9.20;99.90;;;;;;5049250;28;20208;-68
2022/04/01 07:52:20;;;;;;;62.97;29.93;;;9.20;99.90;;;;;;5049122;28;20223;-69
2022/04/01 07:54:48;;;;;;;59.73;29.40;;;9.30;99.90;;;;;;5049195;28;20226;-68
2022/04/01 07:57:17;;;;;;;56.80;29.60;;;9.20;99.90;;;;;;5049067;28;20216;-67
2022/04/01 07:59:46;;;;;;;59.67;31.13;;;9.20;99.90;;;;;;5049384;28;20258;-66
2022/04/01 08:02:14;;;;;;;62.27;31.60;;;9.20;99.90;;;;;;5049009;28;20211;-68
2022/04/01 08:04:43;;;;;;;60.93;31.70;;;9.30;99.90;;;;;;5049036;28;20198;-67
2022/04/01 08:07:12;;;;;;;66.13;32.20;;;9.30;99.90;;;;;;5049094;28;20228;-67
2022/04/01 08:09:40;;;;;;;56.00;31.33;;;9.40;99.90;;;;;;5049350;28;20573;-68
2022/04/01 08:12:09;;;;;;;62.80;32.23;;;9.40;99.90;;;;;;5048894;28;20209;-69
2022/04/01 08:14:39;;;;;;;69.57;34.03;;;9.40;99.90;;;;;;5049000;28;20217;-67
2022/04/01 08:17:11;;;;;;;65.40;33.43;;;9.40;99.90;;;;;;5048819;28;20297;-69
2022/04/01 08:19:40;;;;;;;64.97;33.43;;;9.50;99.90;;;;;;5048914;28;20193;-68
2022/04/01 08:22:10;;;;;;;59.13;31.37;;;9.60;99.90;;;;;;5048607;28;20292;-68
2022/04/01 08:24:39;;;;;;;59.67;31.70;;;9.60;99.90;;;;;;5013898;28;20220;-68
2022/04/01 08:27:06;;;;;;;64.63;33.50;;;9.70;99.90;;;;;;5048575;28;20221;-68
2022/04/01 08:29:36;;;;;;;67.00;35.47;;;9.70;99.90;;;;;;5049193;28;20594;-68
2022/04/01 08:32:06;;;;;;;75.70;35.83;;;9.70;99.90;;;;;;5048562;28;20232;-67
2022/04/01 08:34:34;;;;;;;74.73;35.83;;;9.70;99.90;;;;;;5014586;28;20232;-68
2022/04/01 08:37:03;;;;;;;75.63;35.50;;;9.70;99.90;;;;;;5048678;28;20212;-68
2022/04/01 08:39:32;;;;;;;70.93;34.47;;;9.70;99.90;;;;;;5048595;28;20432;-68
2022/04/01 08:42:02;;;;;;;71.47;35.50;;;9.80;99.90;;;;;;5048693;28;20209;-69
2022/04/01 08:44:30;;;;;;;69.80;35.57;;;9.80;99.90;;;;;;5050290;28;20209;-68
2022/04/01 08:46:57;;;;;;;64.70;34.33;;;9.90;99.90;;;;;;5052266;28;20208;-67
2022/04/01 08:49:25;;;;;;;74.33;34.47;;;9.90;99.90;;;;;;5102705;28;20215;-68
2022/04/01 08:51:54;;;;;;;64.03;34.27;;;9.90;99.90;;;;;;5052277;28;20296;-67
2022/04/01 08:54:21;;;;;;;71.13;33.60;;;9.90;99.90;;;;;;5051917;28;20224;-68
2022/04/01 08:56:50;;;;;;;71.47;35.87;;;10.00;99.90;;;;;;5052049;28;20209;-67
2022/04/01 08:59:17;;;;;;;67.50;35.63;;;10.00;99.90;;;;;;5051883;28;20589;-68
2022/04/01 09:01:46;;;;;;;72.73;35.37;;;10.00;99.90;;;;;;5051998;28;20209;-69
2022/04/01 09:04:21;;;;;;;73.10;35.37;;;10.00;99.90;;;;;;5052129;28;20661;-69
2022/04/01 09:06:50;;;;;;;71.97;35.97;;;10.10;99.90;;;;;;5052021;28;20196;-69
2022/04/01 09:09:26;;;;;;;69.47;35.70;;;10.10;99.90;;;;;;5051772;28;20672;-69
2022/04/01 09:12:10;;;;;;;67.10;35.03;;;10.20;99.90;;;;;;5052015;28;20209;-68
2022/04/01 09:14:40;;;;;;;68.73;34.40;;;10.20;99.90;;;;;;5051783;28;20230;-67
2022/04/01 09:17:09;;;;;;;67.73;35.73;;;10.30;99.90;;;;;;5052020;28;20203;-68
2022/04/01 09:19:38;;;;;;;66.23;33.40;;;10.40;99.90;;;;;;5051841;28;20202;-68
2022/04/01 09:22:20;;;;;;;66.53;34.23;;;10.40;99.90;;;;;;5051784;28;20568;-68
2022/04/01 09:24:58;;;;;;;64.13;34.80;;;10.50;99.90;;;;;;5051500;28;20214;-68
2022/04/01 09:27:42;;;;;;;76.37;33.13;;;10.50;99.90;;;;;;5051616;28;20201;-69
2022/04/01 09:30:13;;;;;;;67.87;34.37;;;10.50;99.90;;;;;;5051486;28;20194;-67
2022/04/01 09:32:43;;;;;;;67.57;33.13;;;10.50;99.90;;;;;;5051663;28;20197;-68
2022/04/01 09:35:12;;;;;;;66.70;33.57;;;10.60;99.90;;;;;;5051091;28;20233;-67
2022/04/01 09:37:41;;;;;;;67.13;34.27;;;10.60;99.90;;;;;;5051536;28;20721;-68
2022/04/01 09:40:10;;;;;;;65.70;32.97;;;10.70;99.90;;;;;;5051980;28;20658;-68
2022/04/01 09:42:39;;;;;;;66.60;33.97;;;10.70;99.90;;;;;;5051489;28;20678;-68
2022/04/01 09:45:08;;;;;;;73.10;34.40;;;10.70;99.90;;;;;;5051163;28;20205;-68
2022/04/01 09:47:37;;;;;;;69.23;33.80;;;10.70;99.90;;;;;;5051266;28;20209;-68
2022/04/01 09:50:13;;;;;;;73.90;34.67;;;10.70;99.90;;;;;;5051032;28;20293;-68
2022/04/01 09:52:41;;;;;;;71.43;34.43;;;10.70;99.90;;;;;;5051456;28;20308;-69
2022/04/01 09:55:10;;;;;;;67.57;34.20;;;10.70;99.90;;;;;;5050381;28;20226;-68
2022/04/01 09:57:39;;;;;;;70.60;34.30;;;10.70;99.90;;;;;;5051196;28;20595;-68
2022/04/01 10:00:09;;;;;;;73.00;33.67;;;10.70;99.90;;;;;;5051211;28;20212;-67
2022/04/01 10:02:40;;;;;;;67.10;34.87;;;10.70;99.90;;;;;;5050807;28;20286;-69
2022/04/01 10:05:09;;;;;;;70.57;33.87;;;10.70;99.90;;;;;;5051509;28;20616;-67
2022/04/01 10:07:37;;;;;;;78.83;34.37;;;10.70;99.90;;;;;;5050962;28;20201;-68
2022/04/01 10:10:07;;;;;;;75.50;34.13;;;10.80;99.90;;;;;;5050711;28;20206;-68
2022/04/01 10:12:42;;;;;;;69.83;34.20;;;10.80;99.90;;;;;;5051119;28;20216;-68
2022/04/01 10:15:11;;;;;;;68.63;32.97;;;10.90;99.90;;;;;;5050903;28;20213;-68
2022/04/01 10:17:42;;;;;;;62.50;32.67;;;10.90;99.90;;;;;;5050937;28;20216;-69
2022/04/01 10:20:14;;;;;;;69.87;33.63;;;11.00;99.90;;;;;;5049637;28;20220;-69
2022/04/01 10:22:43;;;;;;;76.83;34.40;;;11.10;99.90;;;;;;5050697;28;20655;-69
2022/04/01 10:25:17;;;;;;;66.87;33.93;;;11.10;99.90;;;;;;5050556;28;20592;-68
2022/04/01 10:27:51;;;;;;;70.00;34.00;;;11.20;99.90;;;;;;5050531;28;20201;-68
2022/04/01 10:30:20;;;;;;;67.50;34.13;;;11.20;99.90;;;;;;5050637;28;20189;-69
2022/04/01 10:32:49;;;;;;;64.83;34.03;;;11.30;99.90;;;;;;5050336;28;20217;-67
2022/04/01 10:35:24;;;;;;;69.13;34.17;;;11.30;99.90;;;;;;5050547;28;20225;-68
2022/04/01 10:37:56;;;;;;;66.60;33.17;;;11.30;99.90;;;;;;5050479;28;20243;-68
2022/04/01 10:40:32;;;;;;;77.10;35.33;;;11.40;99.90;;;;;;5050410;28;20217;-67
2022/04/01 10:43:11;;;;;;;78.67;36.47;;;11.40;99.90;;;;;;5050396;28;20274;-69
2022/04/01 10:45:40;;;;;;;70.47;34.30;;;11.30;99.90;;;;;;5050658;28;20628;-67
2022/04/01 10:53:59;;;;;;;74.73;34.73;;;11.30;99.90;;;;;;5050129;28;20232;-67
2022/04/01 10:56:37;;;;;;;69.67;35.23;;;11.20;99.90;;;;;;5050455;28;20201;-67
2022/04/01 10:59:10;;;;;;;67.17;32.60;;;11.10;99.90;;;;;;5048785;28;20570;-68
2022/04/01 11:01:40;;;;;;;70.10;33.27;;;11.00;99.90;;;;;;5050177;28;20193;-68
2022/04/01 11:04:27;;;;;;;72.23;34.30;;;11.00;99.90;;;;;;5050250;28;20212;-69
2022/04/01 11:06:56;;;;;;;82.10;34.27;;;10.90;99.90;;;;;;5049223;28;20201;-67
2022/04/01 11:09:37;;;;;;;83.83;35.90;;;10.90;99.90;;;;;;5049671;28;20213;-67
2022/04/01 11:12:34;;;;;;;82.03;35.10;;;10.90;99.90;;;;;;5049699;28;20248;-67
2022/04/01 11:15:29;;;;;;;77.60;35.37;;;10.80;99.90;;;;;;5050109;28;20654;-68
2022/04/01 11:18:08;;;;;;;75.83;34.67;;;10.80;99.90;;;;;;5049735;28;20194;-68
2022/04/01 11:20:39;;;;;;;82.10;35.10;;;10.70;99.90;;;;;;5050337;28;20549;-68
2022/04/01 11:23:14;;;;;;;86.03;35.03;;;10.70;99.90;;;;;;5050206;28;20186;-68
2022/04/01 11:25:57;;;;;;;75.13;35.30;;;10.70;99.90;;;;;;5049642;28;20413;-67
2022/04/01 11:28:27;;;;;;;80.20;36.30;;;10.80;99.90;;;;;;5050119;28;20688;-69
2022/04/01 11:31:17;;;;;;;93.93;37.83;;;10.80;99.90;;;;;;5050171;28;20195;-67
2022/04/01 11:34:01;;;;;;;91.60;37.10;;;10.70;99.90;;;;;;5049341;28;20190;-67
2022/04/01 11:36:32;;;;;;;74.13;35.43;;;10.70;99.90;;;;;;5049870;28;20224;-67
2022/04/01 11:39:00;;;;;;;89.03;37.83;;;10.70;99.90;;;;;;5099524;28;20244;-67
2022/04/01 11:41:29;;;;;;;83.10;35.67;;;10.70;99.90;;;;;;5049440;28;20206;-68
2022/04/01 11:43:56;;;;;;;92.73;38.80;;;10.70;99.90;;;;;;5049490;28;20205;-68
2022/04/01 11:46:25;;;;;;;84.90;36.20;;;10.70;99.90;;;;;;5049804;28;20556;-66
2022/04/01 11:48:54;;;;;;;102.60;40.80;;;10.70;99.90;;;;;;5099104;28;20705;-67
2022/04/01 11:51:24;;;;;;;90.83;38.33;;;10.70;99.90;;;;;;5049417;28;20209;-67
2022/04/01 11:53:53;;;;;;;96.93;39.20;;;10.80;99.90;;;;;;5049083;28;20213;-69
2022/04/01 11:56:21;;;;;;;85.67;35.63;;;10.80;99.90;;;;;;5049621;28;20202;-68
2022/04/01 11:58:55;;;;;;;72.97;35.03;;;10.70;99.90;;;;;;5049182;28;20201;-68
2022/04/01 12:01:27;;;;;;;76.50;33.90;;;10.60;99.90;;;;;;5049542;28;20193;-67
2022/04/01 12:04:07;;;;;;;79.17;35.50;;;10.60;99.90;;;;;;5049435;28;20507;-68
2022/04/01 12:09:21;;;;;;;81.73;33.83;;;10.50;99.90;;;;;;5049370;28;20284;-67
2022/04/01 12:11:48;;;;;;;83.13;35.07;;;10.50;99.90;;;;;;5049227;28;20202;-68
2022/04/01 12:14:24;;;;;;;86.00;35.53;;;10.40;99.90;;;;;;5049290;28;20227;-68
2022/04/01 12:16:52;;;;;;;73.60;33.73;;;10.30;99.90;;;;;;5049199;28;20196;-69
2022/04/01 12:19:22;;;;;;;77.17;32.27;;;10.30;99.90;;;;;;5048624;28;20197;-69
2022/04/01 12:21:50;;;;;;;73.77;32.63;;;10.20;99.90;;;;;;5048974;28;20205;-66
2022/04/01 12:24:18;;;;;;;75.43;33.80;;;10.30;99.90;;;;;;5048749;28;20198;-68
2022/04/01 12:26:48;;;;;;;80.37;33.97;;;10.30;99.90;;;;;;5048878;28;20248;-68
2022/04/01 12:29:20;;;;;;;77.57;33.37;;;10.30;99.90;;;;;;5049157;28;20553;-68
2022/04/01 12:31:52;;;;;;;65.90;30.17;;;10.30;99.90;;;;;;5048635;28;20210;-68
2022/04/01 12:34:21;;;;;;;69.70;31.07;;;10.30;99.90;;;;;;5049200;28;20217;-68
2022/04/01 12:36:59;;;;;;;70.00;30.03;;;10.30;99.90;;;;;;5048776;28;20700;-68
2022/04/01 12:39:27;;;;;;;61.43;31.00;;;10.20;99.90;;;;;;5048649;28;20241;-68
2022/04/01 12:41:58;;;;;;;59.90;28.77;;;10.30;99.90;;;;;;5048655;28;20202;-68
2022/04/01 12:44:27;;;;;;;64.83;28.73;;;10.30;99.90;;;;;;5048585;28;20201;-68
2022/04/01 12:46:59;;;;;;;59.97;27.83;;;10.20;99.90;;;;;;5048928;28;20213;-68
2022/04/01 12:49:30;;;;;;;63.00;27.10;;;10.20;99.90;;;;;;5048604;28;20254;-67
2022/04/01 12:52:00;;;;;;;59.77;27.40;;;10.10;99.90;;;;;;5048917;28;20223;-67
2022/04/01 12:54:31;;;;;;;71.43;28.90;;;10.10;99.90;;;;;;5048304;28;20255;-68
2022/04/01 12:57:01;;;;;;;58.67;26.27;;;10.10;99.90;;;;;;5048795;28;20573;-67
2022/04/01 12:59:33;;;;;;;62.60;26.53;;;10.00;99.90;;;;;;5048255;28;20247;-67
2022/04/01 13:02:02;;;;;;;58.30;26.83;;;10.00;99.90;;;;;;5048778;28;20550;-68
2022/04/01 13:04:40;;;;;;;68.00;27.63;;;10.10;99.90;;;;;;5048422;28;20206;-68